Terminal Aerodrome Forecast
Issued by NWS

Home | Current Version | Previous Version | Text Only | Print | Product List | Glossary On
Versions: 1 2 3 4 5 6 7 8 9 10 11 12 13 14 15 16 17 18 19 20 21
000
FTUS44 KMAF 230600 AAA
TAFHOB
TAF AMD
KHOB 230603Z 2306/2406 14010KT P6SM SCT130 BKN200
     FM231300 17013G19KT P6SM FEW130 BKN250
     FM231800 21018G26KT P6SM FEW130 SCT250
     FM240200 24011KT P6SM SKC=

USA.gov is the U.S. government's official web portal to all federal, state and local government web resources and services.